createdAt,value
2022-11-05T00:00:49.893Z,95.47
2022-11-05T00:01:48.960Z,95.12
2022-11-05T00:02:48.885Z,95.02
2022-11-05T00:03:48.930Z,95.32
2022-11-05T00:04:48.869Z,94.81
2022-11-05T00:05:48.865Z,94.10
2022-11-05T00:06:48.852Z,93.17
2022-11-05T00:07:48.857Z,93.17
2022-11-05T00:08:48.861Z,92.51
2022-11-05T00:09:48.850Z,93.07
2022-11-05T00:10:48.817Z,92.82
2022-11-05T00:11:48.806Z,92.72
2022-11-05T00:12:48.809Z,92.61
2022-11-05T00:13:48.814Z,92.31
2022-11-05T00:14:48.794Z,91.90
2022-11-05T00:15:48.779Z,92.41
2022-11-05T00:16:48.769Z,93.13
2022-11-05T00:17:48.764Z,94.05
2022-11-05T00:18:48.774Z,94.15
2022-11-05T00:19:48.761Z,93.95
2022-11-05T00:20:48.762Z,94.36
2022-11-05T00:21:48.743Z,93.85
2022-11-05T00:22:48.745Z,93.95
2022-11-05T00:23:48.733Z,93.44
2022-11-05T00:24:48.742Z,93.13
2022-11-05T00:25:48.704Z,92.82
2022-11-05T00:26:48.710Z,93.02
2022-11-05T00:27:48.707Z,92.98
2022-11-05T00:28:48.689Z,92.82
2022-11-05T00:29:48.721Z,93.23
2022-11-05T00:30:48.694Z,93.23
2022-11-05T00:31:48.677Z,93.13
2022-11-05T00:32:48.662Z,93.23
2022-11-05T00:33:48.657Z,92.68
2022-11-05T00:34:48.645Z,92.41
2022-11-05T00:35:48.649Z,91.96
2022-11-05T00:36:48.629Z,91.14
2022-11-05T00:37:50.405Z,91.14
2022-11-05T00:38:49.625Z,91.14
2022-11-05T00:39:48.614Z,91.65
2022-11-05T00:40:48.646Z,92.93
2022-11-05T00:41:48.615Z,93.85
2022-11-05T00:42:48.616Z,94.61
2022-11-05T00:43:48.596Z,94.92
2022-11-05T00:44:48.593Z,95.12
2022-11-05T00:45:48.591Z,95.18
2022-11-05T00:46:48.580Z,95.64
2022-11-05T00:47:48.574Z,96.56
2022-11-05T00:48:48.571Z,96.09
2022-11-05T00:49:48.560Z,95.78
2022-11-05T00:50:48.546Z,95.89
2022-11-05T00:51:48.543Z,96.45
2022-11-05T00:52:48.533Z,95.32
2022-11-05T00:53:48.532Z,94.81
2022-11-05T00:54:48.513Z,95.23
2022-11-05T00:55:48.499Z,94.51
2022-11-05T00:56:48.801Z,94.36
2022-11-05T00:57:48.844Z,94.51
2022-11-05T00:58:48.482Z,93.95
2022-11-05T00:59:48.494Z,94.15
2022-11-05T01:00:48.500Z,93.85
2022-11-05T01:01:48.627Z,93.23
2022-11-05T01:02:48.522Z,93.23
2022-11-05T01:03:51.621Z,93.33
2022-11-05T01:04:49.440Z,93.33
2022-11-05T01:05:48.433Z,93.23
2022-11-05T01:06:48.416Z,93.02
2022-11-05T01:07:48.436Z,93.23
2022-11-05T01:08:48.408Z,93.74
2022-11-05T01:09:48.418Z,93.33
2022-11-05T01:10:48.400Z,93.90
2022-11-05T01:11:48.384Z,93.74
2022-11-05T01:12:48.396Z,93.44
2022-11-05T01:13:48.365Z,93.54
2022-11-05T01:14:48.527Z,93.85
2022-11-05T01:15:48.373Z,93.64
2022-11-05T01:16:48.344Z,93.85
2022-11-05T01:17:48.359Z,93.23
2022-11-05T01:18:48.333Z,93.23
2022-11-05T01:19:48.329Z,93.74
2022-11-05T01:20:48.327Z,94.56
2022-11-05T01:21:48.324Z,94.36
2022-11-05T01:22:48.309Z,94.36
2022-11-05T01:23:48.303Z,94.77
2022-11-05T01:24:48.296Z,94.67
2022-11-05T01:25:48.287Z,94.56
2022-11-05T01:26:48.290Z,94.61
2022-11-05T01:27:48.280Z,94.81
2022-11-05T01:28:48.335Z,95.02
2022-11-05T01:29:48.262Z,95.43
2022-11-05T01:30:48.253Z,96.04
2022-11-05T01:31:48.268Z,95.57
2022-11-05T01:32:48.239Z,96.09
2022-11-05T01:33:48.229Z,96.30
2022-11-05T01:34:48.277Z,96.70
2022-11-05T01:35:48.222Z,96.81
2022-11-05T01:36:48.239Z,97.37
2022-11-05T01:37:48.196Z,97.47
2022-11-05T01:38:48.192Z,97.57
2022-11-05T01:39:48.221Z,97.88
2022-11-05T01:40:48.207Z,97.88
2022-11-05T01:41:48.351Z,97.37
2022-11-05T01:42:48.171Z,97.47
2022-11-05T01:43:48.149Z,97.57
2022-11-05T01:44:48.140Z,98.08
2022-11-05T01:45:48.135Z,97.12
2022-11-05T01:46:48.132Z,96.65
2022-11-05T01:47:48.128Z,96.44
2022-11-05T01:48:48.124Z,96.30
2022-11-05T01:49:48.093Z,96.09
2022-11-05T01:50:48.104Z,96.19
2022-11-05T01:51:48.202Z,95.98
2022-11-05T01:52:48.082Z,95.89
2022-11-05T01:53:48.080Z,96.30
2022-11-05T01:54:48.076Z,96.60
2022-11-05T01:55:48.068Z,95.57
2022-11-05T01:56:48.056Z,94.85
2022-11-05T01:57:48.052Z,94.92
2022-11-05T01:58:48.052Z,95.32
2022-11-05T01:59:48.040Z,94.85
2022-11-05T02:00:48.076Z,94.81
2022-11-05T02:01:48.231Z,95.27
2022-11-05T02:02:48.170Z,94.61
2022-11-05T02:03:48.035Z,94.10
2022-11-05T02:04:48.004Z,93.38
2022-11-05T02:05:47.996Z,93.68
2022-11-05T02:06:47.991Z,93.59
2022-11-05T02:07:47.992Z,93.95
2022-11-05T02:08:47.991Z,93.54
2022-11-05T02:09:47.973Z,93.54
2022-11-05T02:10:47.959Z,93.13
2022-11-05T02:11:47.971Z,93.19
2022-11-05T02:12:47.939Z,92.88
2022-11-05T02:13:47.971Z,92.78
2022-11-05T02:14:47.929Z,92.78
2022-11-05T02:15:47.920Z,92.68
2022-11-05T02:16:47.912Z,93.19
2022-11-05T02:17:47.908Z,92.68
2022-11-05T02:18:47.900Z,92.61
2022-11-05T02:19:47.908Z,92.31
2022-11-05T02:20:51.953Z,91.75
2022-11-05T02:21:48.892Z,92.16
2022-11-05T02:22:47.908Z,91.71
2022-11-05T02:23:47.948Z,91.35
2022-11-05T02:24:47.872Z,91.55
2022-11-05T02:25:47.851Z,91.03
2022-11-05T02:26:47.896Z,90.93
2022-11-05T02:27:47.821Z,90.93
2022-11-05T02:28:47.823Z,91.03
2022-11-05T02:29:47.917Z,90.99
2022-11-05T02:30:47.814Z,91.14
2022-11-05T02:31:47.811Z,90.62
2022-11-05T02:32:47.820Z,90.52
2022-11-05T02:33:47.834Z,90.83
2022-11-05T02:34:47.784Z,90.83
2022-11-05T02:35:47.772Z,90.73
2022-11-05T02:36:47.780Z,91.03
2022-11-05T02:37:47.757Z,90.52
2022-11-05T02:38:47.761Z,90.62
2022-11-05T02:39:47.768Z,90.52
2022-11-05T02:40:47.751Z,90.48
2022-11-05T02:41:47.728Z,90.62
2022-11-05T02:42:47.715Z,90.48
2022-11-05T02:43:47.720Z,90.73
2022-11-05T02:44:47.738Z,90.73
2022-11-05T02:45:47.716Z,90.79
2022-11-05T02:46:47.703Z,89.87
2022-11-05T02:47:47.692Z,89.66
2022-11-05T02:48:47.679Z,90.07
2022-11-05T02:49:47.676Z,89.97
2022-11-05T02:50:47.660Z,89.56
2022-11-05T02:51:47.663Z,89.87
2022-11-05T02:52:47.646Z,89.87
2022-11-05T02:53:47.737Z,90.37
2022-11-05T02:54:47.638Z,90.89
2022-11-05T02:55:47.635Z,90.79
2022-11-05T02:56:47.707Z,90.79
2022-11-05T02:57:47.656Z,90.28
2022-11-05T02:58:47.615Z,90.69
2022-11-05T02:59:47.621Z,90.69
2022-11-05T03:00:47.638Z,90.79
2022-11-05T03:01:47.753Z,90.73
2022-11-05T03:02:47.869Z,90.48
2022-11-05T03:03:47.592Z,90.52
2022-11-05T03:04:47.571Z,90.73
2022-11-05T03:05:47.568Z,91.03
2022-11-05T03:06:47.569Z,91.03
2022-11-05T03:07:47.543Z,90.93
2022-11-05T03:08:47.573Z,91.03
2022-11-05T03:09:47.549Z,90.93
2022-11-05T03:10:47.540Z,91.55
2022-11-05T03:11:47.543Z,90.93
2022-11-05T03:12:47.537Z,91.40
2022-11-05T03:13:47.512Z,90.93
2022-11-05T03:14:47.510Z,91.14
2022-11-05T03:15:47.531Z,91.03
2022-11-05T03:16:47.511Z,90.79
2022-11-05T03:17:47.475Z,90.73
2022-11-05T03:18:47.477Z,90.73
2022-11-05T03:19:47.468Z,90.22
2022-11-05T03:20:47.463Z,90.83
2022-11-05T03:21:47.481Z,91.20
2022-11-05T03:22:47.442Z,91.03
2022-11-05T03:23:47.441Z,91.14
2022-11-05T03:24:47.430Z,91.20
2022-11-05T03:25:47.435Z,91.20
2022-11-05T03:26:47.415Z,90.99
2022-11-05T03:27:47.507Z,91.30
2022-11-05T03:28:47.399Z,91.03
2022-11-05T03:29:47.391Z,90.99
2022-11-05T03:30:47.383Z,91.20
2022-11-05T03:31:47.382Z,91.09
2022-11-05T03:32:47.383Z,90.99
2022-11-05T03:33:47.368Z,91.20
2022-11-05T03:34:47.371Z,91.09
2022-11-05T03:35:47.352Z,90.79
2022-11-05T03:36:47.375Z,90.62
2022-11-05T03:37:47.351Z,90.69
2022-11-05T03:38:47.331Z,90.73
2022-11-05T03:39:47.319Z,90.79
2022-11-05T03:40:47.376Z,90.58
2022-11-05T03:41:47.326Z,90.83
2022-11-05T03:42:48.310Z,90.58
2022-11-05T03:43:47.307Z,90.62
2022-11-05T03:44:47.288Z,90.48
2022-11-05T03:45:47.286Z,90.37
2022-11-05T03:46:47.281Z,90.73
2022-11-05T03:47:47.279Z,90.73
2022-11-05T03:48:47.340Z,90.79
2022-11-05T03:49:47.246Z,89.97
2022-11-05T03:50:47.240Z,90.89
2022-11-05T03:51:47.231Z,90.37
2022-11-05T03:52:47.243Z,90.69
2022-11-05T03:53:47.213Z,90.89
2022-11-05T03:54:47.232Z,91.03
2022-11-05T03:55:47.213Z,91.03
2022-11-05T03:56:47.197Z,90.93
2022-11-05T03:57:47.224Z,90.99
2022-11-05T03:58:47.179Z,90.99
2022-11-05T03:59:47.178Z,91.14
2022-11-05T04:00:47.173Z,90.99
2022-11-05T04:01:47.197Z,91.20
2022-11-05T04:02:47.350Z,91.09
2022-11-05T04:03:47.299Z,90.73
2022-11-05T04:04:47.135Z,91.20
2022-11-05T04:05:47.133Z,90.99
2022-11-05T04:06:47.127Z,90.93
2022-11-05T04:07:47.119Z,91.35
2022-11-05T04:08:47.123Z,91.24
2022-11-05T04:09:47.129Z,91.03
2022-11-05T04:10:47.099Z,90.89
2022-11-05T04:11:47.093Z,90.89
2022-11-05T04:12:47.088Z,90.83
2022-11-05T04:13:47.129Z,91.35
2022-11-05T04:14:47.062Z,91.55
2022-11-05T04:15:47.068Z,91.55
2022-11-05T04:16:47.051Z,90.93
2022-11-05T04:17:47.045Z,91.14
2022-11-05T04:18:47.048Z,91.35
2022-11-05T04:19:47.035Z,91.44
2022-11-05T04:20:47.019Z,90.73
2022-11-05T04:21:47.011Z,91.03
2022-11-05T04:22:47.006Z,90.83
2022-11-05T04:23:47.015Z,90.52
2022-11-05T04:24:46.988Z,91.75
2022-11-05T04:25:46.991Z,93.08
2022-11-05T04:26:46.971Z,93.13
2022-11-05T04:27:46.968Z,93.64
2022-11-05T04:28:46.975Z,93.85
2022-11-05T04:29:46.976Z,94.05
2022-11-05T04:30:46.953Z,94.26
2022-11-05T04:31:46.950Z,94.81
2022-11-05T04:32:46.935Z,94.92
2022-11-05T04:33:46.930Z,94.81
2022-11-05T04:34:46.943Z,95.02
2022-11-05T04:35:46.925Z,94.92
2022-11-05T04:36:46.934Z,95.02
2022-11-05T04:37:46.894Z,94.51
2022-11-05T04:38:46.912Z,94.77
2022-11-05T04:39:46.924Z,94.40
2022-11-05T04:40:46.899Z,94.51
2022-11-05T04:41:46.867Z,93.85
2022-11-05T04:42:46.872Z,93.95
2022-11-05T04:43:46.877Z,94.05
2022-11-05T04:44:46.859Z,94.15
2022-11-05T04:45:46.984Z,93.23
2022-11-05T04:46:46.849Z,93.74
2022-11-05T04:47:46.843Z,93.27
2022-11-05T04:48:46.834Z,93.33
2022-11-05T04:49:46.834Z,93.23
2022-11-05T04:50:46.818Z,92.61
2022-11-05T04:51:46.813Z,92.86
2022-11-05T04:52:46.798Z,92.46
2022-11-05T04:53:46.786Z,92.66
2022-11-05T04:54:46.807Z,92.55
2022-11-05T04:55:46.790Z,92.35
2022-11-05T04:56:46.778Z,92.66
2022-11-05T04:57:46.762Z,92.60
2022-11-05T04:58:46.763Z,92.19
2022-11-05T04:59:46.761Z,92.19
2022-11-05T05:00:46.947Z,92.19
2022-11-05T05:01:46.791Z,92.19
2022-11-05T05:02:46.744Z,92.91
2022-11-05T05:03:46.737Z,92.70
2022-11-05T05:04:46.741Z,92.85
2022-11-05T05:05:46.724Z,92.74
2022-11-05T05:06:46.709Z,92.64
2022-11-05T05:07:46.701Z,91.86
2022-11-05T05:08:46.713Z,92.64
2022-11-05T05:09:46.709Z,92.74
2022-11-05T05:10:46.704Z,92.44
2022-11-05T05:11:46.663Z,92.48
2022-11-05T05:12:46.666Z,92.69
2022-11-05T05:13:46.646Z,92.69
2022-11-05T05:14:46.644Z,92.48
2022-11-05T05:15:46.648Z,92.69
2022-11-05T05:16:46.624Z,92.89
2022-11-05T05:17:46.722Z,92.89
2022-11-05T05:18:46.734Z,92.99
2022-11-05T05:19:46.636Z,93.14
2022-11-05T05:20:46.612Z,92.89
2022-11-05T05:21:46.617Z,93.20
2022-11-05T05:22:46.576Z,93.30
2022-11-05T05:23:46.581Z,93.76
2022-11-05T05:24:52.403Z,93.96
2022-11-05T05:25:48.583Z,94.58
2022-11-05T05:26:46.566Z,94.48
2022-11-05T05:27:46.557Z,94.27
2022-11-05T05:28:46.555Z,93.76
2022-11-05T05:29:46.543Z,93.96
2022-11-05T05:30:46.540Z,93.44
2022-11-05T05:31:46.531Z,92.97
2022-11-05T05:32:46.519Z,93.39
2022-11-05T05:33:46.516Z,93.59
2022-11-05T05:34:46.518Z,92.87
2022-11-05T05:35:46.491Z,93.29
2022-11-05T05:36:46.491Z,92.77
2022-11-05T05:37:46.491Z,92.57
2022-11-05T05:38:46.485Z,92.97
2022-11-05T05:39:46.482Z,92.50
2022-11-05T05:40:46.469Z,92.61
2022-11-05T05:41:46.458Z,92.71
2022-11-05T05:42:46.450Z,92.30
2022-11-05T05:43:46.438Z,92.50
2022-11-05T05:44:46.441Z,92.20
2022-11-05T05:45:46.453Z,92.30
2022-11-05T05:46:46.422Z,92.44
2022-11-05T05:47:46.410Z,92.34
2022-11-05T05:48:46.397Z,92.55
2022-11-05T05:49:46.394Z,92.55
2022-11-05T05:50:46.414Z,92.55
2022-11-05T05:51:46.389Z,92.65
2022-11-05T05:52:46.384Z,92.24
2022-11-05T05:53:46.368Z,92.44
2022-11-05T05:54:46.374Z,92.24
2022-11-05T05:55:46.377Z,92.24
2022-11-05T05:56:46.354Z,92.08
2022-11-05T05:57:46.341Z,92.08
2022-11-05T05:58:46.335Z,92.29
2022-11-05T05:59:46.360Z,91.97
2022-11-05T06:00:46.339Z,92.29
2022-11-05T06:01:46.443Z,92.59
2022-11-05T06:02:46.454Z,92.29
2022-11-05T06:03:46.301Z,92.29
2022-11-05T06:04:46.305Z,92.49
2022-11-05T06:05:46.293Z,93.01
2022-11-05T06:06:46.313Z,93.35
2022-11-05T06:07:46.278Z,93.56
2022-11-05T06:08:46.269Z,93.25
2022-11-05T06:09:46.270Z,93.77
2022-11-05T06:10:46.290Z,94.18
2022-11-05T06:11:46.250Z,94.18
2022-11-05T06:12:46.254Z,93.98
2022-11-05T06:13:46.237Z,93.91
2022-11-05T06:14:46.234Z,93.35
2022-11-05T06:15:46.221Z,93.71
2022-11-05T06:16:46.216Z,94.32
2022-11-05T06:17:46.231Z,94.64
2022-11-05T06:18:46.207Z,94.84
2022-11-05T06:19:46.200Z,94.80
2022-11-05T06:20:46.190Z,94.74
2022-11-05T06:21:46.186Z,94.53
2022-11-05T06:22:46.171Z,94.53
2022-11-05T06:23:46.185Z,94.43
2022-11-05T06:24:46.161Z,94.64
2022-11-05T06:25:46.162Z,94.23
2022-11-05T06:26:46.164Z,94.23
2022-11-05T06:27:46.153Z,94.12
2022-11-05T06:28:46.157Z,93.91
2022-11-05T06:29:46.146Z,93.71
2022-11-05T06:30:46.122Z,94.32
2022-11-05T06:31:46.122Z,94.17
2022-11-05T06:32:46.119Z,94.23
2022-11-05T06:33:46.108Z,94.12
2022-11-05T06:34:46.096Z,94.06
2022-11-05T06:35:46.092Z,93.75
2022-11-05T06:36:46.088Z,93.65
2022-11-05T06:37:46.096Z,93.85
2022-11-05T06:38:46.085Z,94.06
2022-11-05T06:39:46.055Z,93.96
2022-11-05T06:40:46.056Z,94.78
2022-11-05T06:42:11.820Z,94.47
2022-11-05T06:42:48.031Z,94.17
2022-11-05T06:43:46.040Z,94.57
2022-11-05T06:44:46.047Z,94.47
2022-11-05T06:45:46.029Z,94.06
2022-11-05T06:46:48.669Z,94.37
2022-11-05T06:47:47.019Z,94.37
2022-11-05T06:48:46.015Z,94.43
2022-11-05T06:49:45.999Z,94.12
2022-11-05T06:50:45.995Z,94.64
2022-11-05T06:51:45.976Z,94.23
2022-11-05T06:52:45.984Z,94.12
2022-11-05T06:53:46.007Z,94.49
2022-11-05T06:54:45.963Z,94.49
2022-11-05T06:55:45.959Z,94.08
2022-11-05T06:56:45.955Z,94.28
2022-11-05T06:57:45.947Z,94.13
2022-11-05T06:58:45.947Z,94.24
2022-11-05T06:59:45.934Z,94.13
2022-11-05T07:00:46.002Z,93.79
2022-11-05T07:01:46.001Z,92.96
2022-11-05T07:02:45.923Z,93.12
2022-11-05T07:03:45.916Z,93.02
2022-11-05T07:04:45.916Z,92.97
2022-11-05T07:05:45.905Z,92.58
2022-11-05T07:06:45.890Z,92.44
2022-11-05T07:07:45.885Z,92.04
2022-11-05T07:08:45.880Z,91.38
2022-11-05T07:09:45.880Z,91.09
2022-11-05T07:10:45.888Z,89.47
2022-11-05T07:11:45.873Z,87.79
2022-11-05T07:12:45.850Z,87.14
2022-11-05T07:13:45.831Z,86.55
2022-11-05T07:14:45.836Z,84.94
2022-11-05T07:15:45.816Z,82.14
2022-11-05T07:16:45.837Z,81.66
2022-11-05T07:17:45.813Z,78.26
2022-11-05T07:18:45.808Z,77.61
2022-11-05T07:19:45.792Z,80.08
2022-11-05T07:20:45.790Z,77.84
2022-11-05T07:21:45.781Z,76.28
2022-11-05T07:22:45.792Z,74.01
2022-11-05T07:23:45.760Z,72.14
2022-11-05T07:24:45.747Z,71.40
2022-11-05T07:25:45.749Z,72.38
2022-11-05T07:26:45.741Z,74.17
2022-11-05T07:27:45.750Z,71.26
2022-11-05T07:28:45.740Z,69.00
2022-11-05T07:29:45.716Z,71.09
2022-11-05T07:30:45.739Z,68.94
2022-11-05T07:31:45.713Z,64.35
2022-11-05T07:32:45.703Z,62.26
2022-11-05T07:33:45.705Z,63.66
2022-11-05T07:34:45.712Z,64.30
2022-11-05T07:35:45.706Z,66.19
2022-11-05T07:36:45.685Z,69.34
2022-11-05T07:37:45.677Z,69.51
2022-11-05T07:38:45.689Z,69.57
2022-11-05T07:39:45.661Z,69.03
2022-11-05T07:40:45.648Z,68.40
2022-11-05T07:41:45.650Z,66.24
2022-11-05T07:42:45.635Z,66.50
2022-11-05T07:43:45.690Z,63.20
2022-11-05T07:44:45.640Z,64.64
2022-11-05T07:45:45.629Z,64.47
2022-11-05T07:46:45.606Z,65.48
2022-11-05T07:47:45.607Z,65.45
2022-11-05T07:48:45.593Z,67.03
2022-11-05T07:49:45.627Z,68.62
2022-11-05T07:50:45.583Z,69.77
2022-11-05T07:51:45.562Z,70.65
2022-11-05T07:52:46.566Z,70.18
2022-11-05T07:53:45.827Z,68.96
2022-11-05T07:54:45.597Z,68.21
2022-11-05T07:55:45.549Z,70.18
2022-11-05T07:56:45.538Z,70.86
2022-11-05T07:57:45.530Z,72.31
2022-11-05T07:58:45.522Z,72.31
2022-11-05T07:59:45.525Z,72.65
2022-11-05T08:00:45.643Z,70.68
2022-11-05T08:01:45.659Z,71.23
2022-11-05T08:02:45.743Z,71.20
2022-11-05T08:03:45.541Z,67.81
2022-11-05T08:04:45.489Z,68.08
2022-11-05T08:05:45.494Z,68.05
2022-11-05T08:06:45.486Z,67.55
2022-11-05T08:07:45.469Z,67.17
2022-11-05T08:08:45.457Z,67.91
2022-11-05T08:09:45.461Z,69.64
2022-11-05T08:10:45.466Z,69.84
2022-11-05T08:11:45.446Z,69.51
2022-11-05T08:12:45.437Z,69.95
2022-11-05T08:13:45.441Z,67.65
2022-11-05T08:14:45.442Z,65.29
2022-11-05T08:15:45.407Z,64.65
2022-11-05T08:16:45.404Z,63.15
2022-11-05T08:17:45.402Z,64.95
2022-11-05T08:18:45.398Z,60.83
2022-11-05T08:19:45.371Z,58.05
2022-11-05T08:20:45.369Z,55.31
2022-11-05T08:21:45.370Z,56.49
2022-11-05T08:22:45.352Z,59.69
2022-11-05T08:23:45.350Z,56.92
2022-11-05T08:24:45.347Z,55.68
2022-11-05T08:25:45.333Z,54.98
2022-11-05T08:26:45.338Z,55.55
2022-11-05T08:27:45.322Z,53.85
2022-11-05T08:28:45.311Z,55.43
2022-11-05T08:29:45.349Z,53.80
2022-11-05T08:30:45.297Z,55.45
2022-11-05T08:31:45.353Z,52.77
2022-11-05T08:32:45.286Z,49.74
2022-11-05T08:33:45.277Z,50.94
2022-11-05T08:34:45.270Z,50.84
2022-11-05T08:35:45.263Z,49.14
2022-11-05T08:36:45.257Z,50.54
2022-11-05T08:37:45.263Z,50.74
2022-11-05T08:38:45.253Z,50.59
2022-11-05T08:39:45.249Z,50.74
2022-11-05T08:40:45.298Z,52.42
2022-11-05T08:41:45.233Z,50.71
2022-11-05T08:42:45.218Z,51.57
2022-11-05T08:43:45.210Z,50.14
2022-11-05T08:44:45.199Z,50.32
2022-11-05T08:45:45.199Z,50.37
2022-11-05T08:46:45.197Z,48.60
2022-11-05T08:47:45.195Z,50.07
2022-11-05T08:48:45.179Z,50.37
2022-11-05T08:49:45.175Z,50.34
2022-11-05T08:50:46.175Z,52.47
2022-11-05T08:51:45.178Z,54.80
2022-11-05T08:52:45.151Z,55.86
2022-11-05T08:53:45.143Z,53.09
2022-11-05T08:54:45.140Z,51.39
2022-11-05T08:55:45.159Z,51.39
2022-11-05T08:56:45.134Z,52.62
2022-11-05T08:57:45.127Z,50.71
2022-11-05T08:58:45.122Z,51.32
2022-11-05T08:59:45.119Z,50.69
2022-11-05T09:00:45.190Z,51.49
2022-11-05T09:01:45.263Z,51.39
2022-11-05T09:02:45.150Z,51.74
2022-11-05T09:03:45.089Z,52.69
2022-11-05T09:04:45.084Z,53.75
2022-11-05T09:05:45.087Z,56.61
2022-11-05T09:06:45.085Z,52.22
2022-11-05T09:07:45.058Z,51.29
2022-11-05T09:08:45.051Z,51.69
2022-11-05T09:09:45.035Z,50.79
2022-11-05T09:10:45.027Z,52.64
2022-11-05T09:12:10.611Z,53.50
2022-11-05T09:12:47.051Z,51.64
2022-11-05T09:13:45.086Z,50.89
2022-11-05T09:14:45.035Z,50.76
2022-11-05T09:15:45.000Z,49.57
2022-11-05T09:16:44.985Z,48.84
2022-11-05T09:17:45.002Z,47.72
2022-11-05T09:18:44.994Z,48.10
2022-11-05T09:19:45.675Z,47.72
2022-11-05T09:20:45.669Z,45.68
2022-11-05T09:21:44.958Z,45.04
2022-11-05T09:22:44.958Z,43.71
2022-11-05T09:23:44.993Z,41.91
2022-11-05T09:24:44.950Z,43.33
2022-11-05T09:25:44.960Z,42.89
2022-11-05T09:26:44.924Z,40.42
2022-11-05T09:27:44.938Z,41.93
2022-11-05T09:28:44.941Z,41.14
2022-11-05T09:29:44.921Z,40.76
2022-11-05T09:30:44.924Z,43.33
2022-11-05T09:31:44.959Z,42.23
2022-11-05T09:32:44.916Z,42.51
2022-11-05T09:33:44.949Z,40.58
2022-11-05T09:34:44.971Z,40.80
2022-11-05T09:35:44.869Z,39.98
2022-11-05T09:36:44.870Z,39.59
2022-11-05T09:37:44.858Z,40.74
2022-11-05T09:38:44.889Z,41.85
2022-11-05T09:39:44.860Z,40.24
2022-11-05T09:40:44.866Z,41.71
2022-11-05T09:41:44.842Z,40.70
2022-11-05T09:42:44.829Z,40.78
2022-11-05T09:43:44.843Z,40.58
2022-11-05T09:44:44.806Z,40.00
2022-11-05T09:45:45.805Z,39.90
2022-11-05T09:46:44.808Z,42.41
2022-11-05T09:47:44.801Z,41.12
2022-11-05T09:48:44.776Z,40.42
2022-11-05T09:49:45.781Z,40.72
2022-11-05T09:50:44.772Z,40.30
2022-11-05T09:51:44.776Z,41.38
2022-11-05T09:52:44.765Z,42.63
2022-11-05T09:53:44.753Z,43.18
2022-11-05T09:54:44.748Z,45.57
2022-11-05T09:55:44.745Z,44.51
2022-11-05T09:56:44.870Z,42.37
2022-11-05T09:57:44.732Z,42.43
2022-11-05T09:58:44.720Z,41.39
2022-11-05T09:59:44.724Z,39.48
2022-11-05T10:00:44.739Z,38.97
2022-11-05T10:01:44.842Z,39.17
2022-11-05T10:02:44.720Z,39.50
2022-11-05T10:03:44.766Z,40.42
2022-11-05T10:04:44.677Z,40.28
2022-11-05T10:05:44.842Z,40.05
2022-11-05T10:06:44.665Z,37.84
2022-11-05T10:07:44.697Z,38.32
2022-11-05T10:08:44.660Z,37.88
2022-11-05T10:09:44.658Z,37.05
2022-11-05T10:10:44.646Z,36.96
2022-11-05T10:11:44.648Z,36.26
2022-11-05T10:12:44.648Z,38.26
2022-11-05T10:13:44.631Z,35.78
2022-11-05T10:14:44.628Z,36.88
2022-11-05T10:15:44.612Z,36.25
2022-11-05T10:16:44.613Z,39.41
2022-11-05T10:17:44.641Z,36.86
2022-11-05T10:18:44.683Z,35.14
2022-11-05T10:19:44.592Z,36.35
2022-11-05T10:20:44.596Z,36.05
2022-11-05T10:22:05.441Z,34.34
2022-11-05T10:22:49.497Z,35.47
2022-11-05T10:23:45.579Z,35.86
2022-11-05T10:24:44.576Z,36.10
2022-11-05T10:25:44.565Z,36.60
2022-11-05T10:26:44.571Z,36.32
2022-11-05T10:27:44.568Z,36.51
2022-11-05T10:28:44.548Z,37.92
2022-11-05T10:29:44.552Z,40.89
2022-11-05T10:30:44.548Z,40.86
2022-11-05T10:31:44.528Z,39.83
2022-11-05T10:32:44.532Z,39.29
2022-11-05T10:33:44.548Z,38.75
2022-11-05T10:34:44.517Z,37.62
2022-11-05T10:35:44.625Z,36.32
2022-11-05T10:36:44.531Z,37.15
2022-11-05T10:37:44.504Z,40.01
2022-11-05T10:38:44.521Z,37.54
2022-11-05T10:39:45.134Z,38.12
2022-11-05T10:40:44.483Z,36.71
2022-11-05T10:41:44.476Z,37.54
2022-11-05T10:42:44.486Z,38.24
2022-11-05T10:43:44.477Z,37.82
2022-11-05T10:44:44.484Z,36.11
2022-11-05T10:45:44.477Z,37.41
2022-11-05T10:46:44.523Z,36.41
2022-11-05T10:47:44.454Z,37.36
2022-11-05T10:48:44.450Z,37.49
2022-11-05T10:49:44.441Z,39.62
2022-11-05T10:50:44.444Z,38.93
2022-11-05T10:51:44.433Z,40.66
2022-11-05T10:52:44.412Z,45.30
2022-11-05T10:53:44.419Z,46.47
2022-11-05T10:54:44.460Z,48.95
2022-11-05T10:55:44.401Z,50.08
2022-11-05T10:56:44.388Z,49.21
2022-11-05T10:57:44.400Z,48.01
2022-11-05T10:58:44.388Z,46.54
2022-11-05T10:59:44.378Z,44.93
2022-11-05T11:00:44.437Z,41.55
2022-11-05T11:01:44.472Z,41.06
2022-11-05T11:02:44.364Z,38.68
2022-11-05T11:03:44.360Z,40.23
2022-11-05T11:04:44.345Z,40.20
2022-11-05T11:05:44.365Z,40.81
2022-11-05T11:06:44.344Z,38.98
2022-11-05T11:07:44.336Z,39.20
2022-11-05T11:08:44.321Z,40.20
2022-11-05T11:09:44.419Z,38.98
2022-11-05T11:10:44.321Z,37.77
2022-11-05T11:11:44.329Z,39.50
2022-11-05T11:12:44.297Z,39.98
2022-11-05T11:13:44.367Z,39.50
2022-11-05T11:14:44.295Z,39.50
2022-11-05T11:15:44.291Z,39.92
2022-11-05T11:16:44.302Z,38.89
2022-11-05T11:17:44.272Z,38.45
2022-11-05T11:18:44.291Z,38.96
2022-11-05T11:19:44.256Z,38.65
2022-11-05T11:20:44.267Z,39.21
2022-11-05T11:21:44.281Z,36.76
2022-11-05T11:22:44.243Z,38.37
2022-11-05T11:23:44.234Z,38.09
2022-11-05T11:24:44.231Z,38.82
2022-11-05T11:25:44.245Z,37.23
2022-11-05T11:26:44.210Z,38.33
2022-11-05T11:27:44.221Z,37.45
2022-11-05T11:28:44.213Z,38.10
2022-11-05T11:29:49.183Z,39.48
2022-11-05T11:30:46.192Z,40.59
2022-11-05T11:31:45.179Z,40.61
2022-11-05T11:32:44.235Z,39.41
2022-11-05T11:33:44.182Z,39.31
2022-11-05T11:34:44.172Z,39.11
2022-11-05T11:35:44.155Z,39.37
2022-11-05T11:36:44.158Z,38.28
2022-11-05T11:37:44.168Z,39.87
2022-11-05T11:38:44.190Z,40.45
2022-11-05T11:39:44.140Z,41.27
2022-11-05T11:40:44.143Z,40.05
2022-11-05T11:41:44.131Z,40.45
2022-11-05T11:42:44.124Z,40.63
2022-11-05T11:43:44.132Z,39.37
2022-11-05T11:44:44.110Z,40.73
2022-11-05T11:45:44.095Z,40.63
2022-11-05T11:46:44.095Z,42.94
2022-11-05T11:47:44.099Z,45.05
2022-11-05T11:48:44.103Z,43.66
2022-11-05T11:49:44.078Z,45.32
2022-11-05T11:50:44.069Z,46.49
2022-11-05T11:51:49.471Z,48.65
2022-11-05T11:52:45.063Z,49.33
2022-11-05T11:53:44.054Z,50.61
2022-11-05T11:54:44.052Z,52.06
2022-11-05T11:55:44.043Z,54.24
2022-11-05T11:56:44.028Z,54.16
2022-11-05T11:57:44.022Z,54.46
2022-11-05T11:58:44.025Z,54.26
2022-11-05T12:00:09.862Z,53.96
2022-11-05T12:00:46.006Z,55.47
2022-11-05T12:01:44.044Z,56.11
2022-11-05T12:02:44.815Z,56.11
2022-11-05T12:03:43.999Z,57.25
2022-11-05T12:04:43.986Z,57.68
2022-11-05T12:05:43.986Z,58.09
2022-11-05T12:06:43.962Z,57.59
2022-11-05T12:07:43.959Z,57.61
2022-11-05T12:08:45.850Z,58.53
2022-11-05T12:09:44.958Z,58.63
2022-11-05T12:10:43.941Z,59.75
2022-11-05T12:11:43.933Z,60.08
2022-11-05T12:12:43.931Z,59.57
2022-11-05T12:13:44.031Z,60.18
2022-11-05T12:14:46.677Z,59.84
2022-11-05T12:15:44.905Z,57.83
2022-11-05T12:16:43.892Z,53.25
2022-11-05T12:17:43.886Z,51.23
2022-11-05T12:18:43.889Z,49.42
2022-11-05T12:19:43.938Z,47.85
2022-11-05T12:20:45.420Z,45.89
2022-11-05T12:21:58.412Z,44.18
2022-11-05T12:22:45.867Z,45.87
2022-11-05T12:23:43.863Z,47.89
2022-11-05T12:24:43.858Z,46.76
2022-11-05T12:25:43.837Z,45.53
2022-11-05T12:26:44.846Z,47.45
2022-11-05T12:27:43.855Z,47.94
2022-11-05T12:29:12.279Z,47.89
2022-11-05T12:29:45.810Z,46.66
2022-11-05T12:30:43.810Z,46.14
2022-11-05T12:31:43.811Z,45.10
2022-11-05T12:32:43.914Z,43.28
2022-11-05T12:33:43.787Z,44.24
2022-11-05T12:34:43.793Z,45.35
2022-11-05T12:35:48.085Z,45.05
2022-11-05T12:36:45.791Z,46.41
2022-11-05T12:37:43.762Z,44.95
2022-11-05T12:38:43.794Z,41.89
2022-11-05T12:39:43.745Z,41.75
2022-11-05T12:40:43.739Z,40.83
2022-11-05T12:41:43.751Z,42.02
2022-11-05T12:42:43.718Z,40.65
2022-11-05T12:43:43.712Z,40.07
2022-11-05T12:44:43.718Z,40.85
2022-11-05T12:45:43.704Z,39.55
2022-11-05T12:46:43.697Z,40.65
2022-11-05T12:47:43.710Z,40.25
2022-11-05T12:48:43.688Z,40.29
2022-11-05T12:49:43.676Z,39.49
2022-11-05T12:50:43.683Z,39.67
2022-11-05T12:51:43.663Z,39.18
2022-11-05T12:52:43.673Z,39.71